createdAt,value
2022-12-23T00:00:00.646Z,0
2022-12-23T00:05:00.658Z,0
2022-12-23T00:10:01.245Z,0
2022-12-23T00:15:00.923Z,0
2022-12-23T00:20:00.649Z,0
2022-12-23T00:25:00.694Z,0
2022-12-23T00:30:00.636Z,0
2022-12-23T00:35:00.913Z,0
2022-12-23T00:40:06.102Z,0
2022-12-23T00:45:01.243Z,0
2022-12-23T00:50:00.654Z,0
2022-12-23T00:55:00.651Z,0
2022-12-23T01:00:00.656Z,0
2022-12-23T01:05:00.844Z,0
2022-12-23T01:10:00.919Z,0
2022-12-23T01:15:00.691Z,0
2022-12-23T01:20:00.705Z,0
2022-12-23T01:25:00.724Z,0
2022-12-23T01:30:01.221Z,0
2022-12-23T01:35:00.688Z,0
2022-12-23T01:40:00.701Z,0
2022-12-23T01:45:00.799Z,0
2022-12-23T01:50:00.742Z,0
2022-12-23T01:55:00.997Z,0
2022-12-23T02:00:00.704Z,0
2022-12-23T02:05:00.695Z,0
2022-12-23T02:10:00.708Z,0
2022-12-23T02:15:00.862Z,0
2022-12-23T02:20:00.757Z,0
2022-12-23T02:25:00.886Z,0
2022-12-23T02:30:00.707Z,0
2022-12-23T02:35:00.671Z,0
2022-12-23T02:40:01.255Z,0
2022-12-23T02:45:00.857Z,0
2022-12-23T02:50:00.693Z,0
2022-12-23T02:55:00.815Z,0
2022-12-23T03:00:00.842Z,0
2022-12-23T03:05:01.275Z,0
2022-12-23T03:10:01.048Z,0
2022-12-23T03:15:00.721Z,0
2022-12-23T03:20:00.639Z,0
2022-12-23T03:25:00.687Z,0
2022-12-23T03:30:01.044Z,0
2022-12-23T03:35:00.651Z,0
2022-12-23T03:40:01.325Z,0
2022-12-23T03:45:37.081Z,0
2022-12-23T03:50:00.651Z,0
2022-12-23T03:55:00.683Z,0
2022-12-23T04:00:00.691Z,0
2022-12-23T04:05:00.658Z,0
2022-12-23T04:10:00.673Z,0
2022-12-23T04:15:00.644Z,0
2022-12-23T04:20:00.853Z,0
2022-12-23T04:25:00.679Z,0
2022-12-23T04:30:00.753Z,0
2022-12-23T04:35:00.731Z,0
2022-12-23T04:40:00.783Z,0
2022-12-23T04:45:00.653Z,0
2022-12-23T04:50:00.923Z,0
2022-12-23T04:55:00.637Z,0
2022-12-23T05:00:00.900Z,0
2022-12-23T05:05:00.883Z,0
2022-12-23T05:10:00.657Z,0
2022-12-23T05:15:00.696Z,0
2022-12-23T05:20:00.665Z,0
2022-12-23T05:25:00.721Z,0
2022-12-23T05:30:00.705Z,0
2022-12-23T05:35:00.678Z,0
2022-12-23T05:40:00.652Z,0
2022-12-23T05:45:00.701Z,0
2022-12-23T05:50:00.655Z,0
2022-12-23T05:55:00.655Z,0
2022-12-23T06:00:00.659Z,0
2022-12-23T06:05:00.734Z,0
2022-12-23T06:10:00.679Z,0
2022-12-23T06:15:00.656Z,0
2022-12-23T06:20:00.649Z,0
2022-12-23T06:25:00.710Z,0
2022-12-23T06:30:00.685Z,0
2022-12-23T06:35:00.724Z,0
2022-12-23T06:40:00.668Z,0
2022-12-23T06:45:03.190Z,0
2022-12-23T06:50:00.666Z,0
2022-12-23T06:55:00.707Z,0
2022-12-23T07:00:01.933Z,0
2022-12-23T07:05:00.644Z,0
2022-12-23T07:10:00.669Z,0
2022-12-23T07:15:00.685Z,0
2022-12-23T07:20:00.926Z,0
2022-12-23T07:25:00.690Z,10
2022-12-23T07:30:00.737Z,32
2022-12-23T07:35:00.703Z,55
2022-12-23T07:40:05.160Z,65
2022-12-23T07:45:00.660Z,77
2022-12-23T07:50:00.651Z,108
2022-12-23T07:55:00.677Z,108
2022-12-23T08:00:00.728Z,179
2022-12-23T08:05:01.157Z,225
2022-12-23T08:10:00.762Z,265
2022-12-23T08:15:01.024Z,314
2022-12-23T08:20:07.033Z,438
2022-12-23T08:25:00.770Z,567
2022-12-23T08:45:00.458Z,567
2022-12-23T08:50:00.440Z,426
2022-12-23T08:55:00.408Z,643
2022-12-23T09:00:00.475Z,726
2022-12-23T09:05:00.421Z,818
2022-12-23T09:10:00.439Z,728
2022-12-23T09:15:00.419Z,920
2022-12-23T09:20:00.417Z,1166
2022-12-23T09:25:05.026Z,1315
2022-12-23T09:30:00.459Z,1315
2022-12-23T09:35:00.445Z,1169
2022-12-23T09:40:00.447Z,1169
2022-12-23T09:45:00.442Z,1040
2022-12-23T09:50:00.430Z,922
2022-12-23T09:55:00.447Z,816
2022-12-23T10:00:00.458Z,816
2022-12-23T10:25:00.447Z,927
2022-12-23T10:30:13.868Z,927
2022-12-23T10:35:00.442Z,1042
2022-12-23T10:40:00.431Z,1173
2022-12-23T10:45:00.449Z,1040
2022-12-23T10:50:00.431Z,925
2022-12-23T10:55:00.446Z,925
2022-12-23T11:00:00.438Z,925
2022-12-23T11:05:00.433Z,925
2022-12-23T11:10:00.451Z,914
2022-12-23T11:15:00.420Z,914
2022-12-23T11:20:00.433Z,822
2022-12-23T11:25:00.426Z,932
2022-12-23T11:30:00.439Z,932
2022-12-23T11:35:00.499Z,572
2022-12-23T11:40:00.439Z,508
2022-12-23T11:45:00.441Z,430
2022-12-23T11:50:00.443Z,501
2022-12-23T11:55:00.431Z,639
2022-12-23T12:00:00.426Z,568
2022-12-23T12:05:00.431Z,496
2022-12-23T12:10:00.441Z,568
2022-12-23T12:15:00.430Z,505
2022-12-23T12:20:00.452Z,361
2022-12-23T12:25:00.444Z,361
2022-12-23T12:30:06.103Z,361
2022-12-23T12:35:00.430Z,361
2022-12-23T12:40:00.431Z,361
2022-12-23T12:45:00.432Z,306
2022-12-23T12:50:00.422Z,260
2022-12-23T12:55:00.435Z,220
2022-12-23T13:00:06.144Z,157
2022-12-23T13:05:00.439Z,157
2022-12-23T13:10:00.444Z,157
2022-12-23T13:15:00.430Z,186
2022-12-23T13:20:00.434Z,259
2022-12-23T13:25:00.430Z,259
2022-12-23T13:30:00.472Z,259
2022-12-23T13:35:00.438Z,305
2022-12-23T13:40:00.434Z,509
2022-12-23T13:45:00.427Z,574
2022-12-23T13:50:00.422Z,431
2022-12-23T13:55:00.423Z,309
2022-12-23T14:00:05.395Z,309
2022-12-23T14:05:00.448Z,213
2022-12-23T14:10:00.439Z,199
2022-12-23T14:15:00.429Z,199
2022-12-23T14:20:00.435Z,199
2022-12-23T14:25:00.431Z,160
2022-12-23T14:30:05.588Z,189
2022-12-23T14:35:00.446Z,223
2022-12-23T14:40:00.436Z,314
2022-12-23T14:45:00.442Z,314
2022-12-23T14:50:00.445Z,438
2022-12-23T14:55:28.982Z,502
2022-12-23T15:00:00.429Z,502
2022-12-23T15:05:00.416Z,181
2022-12-23T15:10:01.111Z,144
2022-12-23T15:15:00.427Z,103
2022-12-23T15:20:00.426Z,73
2022-12-23T15:25:00.429Z,52
2022-12-23T15:30:00.441Z,38
2022-12-23T15:35:00.421Z,39
2022-12-23T15:40:09.662Z,25
2022-12-23T15:45:00.447Z,18
2022-12-23T15:50:00.589Z,11
2022-12-23T15:55:00.441Z,11
2022-12-23T16:00:00.583Z,4
2022-12-23T16:05:00.518Z,4
2022-12-23T16:10:00.439Z,4
2022-12-23T16:15:00.443Z,4
2022-12-23T16:20:00.468Z,4
2022-12-23T16:25:00.445Z,4
2022-12-23T16:30:00.440Z,4
2022-12-23T16:35:00.420Z,4
2022-12-23T16:40:00.445Z,0
2022-12-23T16:45:00.457Z,0
2022-12-23T16:50:00.437Z,0
2022-12-23T16:55:00.447Z,0
2022-12-23T17:00:00.518Z,0
2022-12-23T17:05:00.435Z,0
2022-12-23T17:10:00.434Z,0
2022-12-23T17:15:00.453Z,0
2022-12-23T17:20:00.427Z,0
2022-12-23T17:25:00.445Z,0
2022-12-23T17:30:00.484Z,0
2022-12-23T17:35:00.463Z,0
2022-12-23T17:40:00.447Z,0
2022-12-23T17:45:00.439Z,0
2022-12-23T17:50:00.421Z,0
2022-12-23T17:55:00.441Z,0
2022-12-23T18:00:00.435Z,0
2022-12-23T18:05:00.457Z,0
2022-12-23T18:10:00.474Z,0
2022-12-23T18:15:00.450Z,0
2022-12-23T18:20:00.429Z,0
2022-12-23T18:25:00.453Z,0
2022-12-23T18:30:00.449Z,0
2022-12-23T18:35:00.435Z,0
2022-12-23T18:40:00.447Z,0
2022-12-23T18:45:00.441Z,0
2022-12-23T18:50:00.577Z,0
2022-12-23T18:55:00.437Z,0
2022-12-23T19:00:00.442Z,0
2022-12-23T19:05:00.440Z,0
2022-12-23T19:10:00.441Z,0
2022-12-23T19:15:00.441Z,0
2022-12-23T19:20:00.432Z,0
2022-12-23T19:25:06.050Z,0
2022-12-23T19:30:00.464Z,0
2022-12-23T19:35:00.430Z,0
2022-12-23T19:40:00.555Z,0
2022-12-23T19:45:00.442Z,0
2022-12-23T19:50:00.435Z,0
2022-12-23T19:55:00.453Z,0
2022-12-23T20:00:00.443Z,0
2022-12-23T20:05:00.508Z,0
2022-12-23T20:10:00.446Z,0
2022-12-23T20:15:00.497Z,0
2022-12-23T20:25:00.553Z,0
2022-12-23T20:35:00.765Z,0
2022-12-23T20:40:00.843Z,0
2022-12-23T20:45:00.393Z,0
2022-12-23T20:55:00.333Z,0
2022-12-23T21:00:00.476Z,0
2022-12-23T21:05:00.352Z,0
2022-12-23T21:10:00.448Z,0
2022-12-23T21:15:00.411Z,0
2022-12-23T21:20:06.938Z,0
2022-12-23T21:30:00.356Z,0
2022-12-23T21:35:00.330Z,0
2022-12-23T21:40:00.338Z,0
2022-12-23T21:45:00.326Z,0
2022-12-23T21:50:00.343Z,0
2022-12-23T21:55:00.325Z,0
2022-12-23T22:00:00.372Z,0
2022-12-23T22:05:00.331Z,0
2022-12-23T22:10:00.323Z,0
2022-12-23T22:15:01.974Z,0
2022-12-23T22:20:00.338Z,0
2022-12-23T22:25:00.339Z,0
2022-12-23T22:30:00.340Z,0
2022-12-23T22:35:00.314Z,0
2022-12-23T22:40:00.356Z,0
2022-12-23T22:45:00.390Z,0
2022-12-23T22:50:00.328Z,0
2022-12-23T22:55:00.332Z,0
2022-12-23T23:00:04.749Z,0
2022-12-23T23:05:00.454Z,0
2022-12-23T23:10:00.333Z,0
2022-12-23T23:15:00.333Z,0
2022-12-23T23:20:00.336Z,0
2022-12-23T23:25:00.322Z,0
2022-12-23T23:30:00.350Z,0
2022-12-23T23:35:02.998Z,0
2022-12-23T23:40:00.322Z,0
2022-12-23T23:45:00.360Z,0
2022-12-23T23:50:00.328Z,0
2022-12-23T23:55:00.325Z,0
